Time;durP1;ratioP1;P1;durP2;ratioP2;P2;SDS_P1;SDS_P2;PMS_P1;PMS_P2;Temp;Humidity;BMP_temperature;BMP_pressure;BME280_temperature;BME280_humidity;BME280_pressure;Samples;Min_cycle;Max_cycle;Signal;HPM_P1;HPM_P2
2023/12/19 00:01:01;;;;;;;6.27;2.27;;;;;;;;;;10469445;28;20649;-74
2023/12/19 00:06:04;;;;;;;8.90;2.63;;;;;;;;;;10474832;28;20133;-74
2023/12/19 00:11:06;;;;;;;6.47;2.53;;;;;;;;;;10468922;28;20110;-74
2023/12/19 00:16:11;;;;;;;7.40;1.70;;;;;;;;;;10476633;28;20486;-74
2023/12/19 00:21:13;;;;;;;2.72;1.50;;;;;;;;;;10464935;28;20678;-74
2023/12/19 00:26:16;;;;;;;8.27;2.30;;;;;;;;;;10472384;28;20051;-75
2023/12/19 00:31:21;;;;;;;4.28;2.00;;;;;;;;;;10475886;28;20333;-75
2023/12/19 00:36:24;;;;;;;2.00;0.83;;;;;;;;;;10476031;28;20043;-74
2023/12/19 00:41:27;;;;;;;4.40;1.70;;;;;;;;;;10464477;28;20072;-74
2023/12/19 00:46:31;;;;;;;2.50;1.60;;;;;;;;;;10461101;28;20048;-75
2023/12/19 00:51:34;;;;;;;4.90;1.80;;;;;;;;;;10467310;28;20056;-75
2023/12/19 00:56:37;;;;;;;3.95;2.00;;;;;;;;;;10463714;28;20090;-75
2023/12/19 01:01:41;;;;;;;3.05;1.70;;;;;;;;;;10466126;28;20080;-76
2023/12/19 01:06:43;;;;;;;6.55;1.83;;;;;;;;;;10464539;28;20199;-74
2023/12/19 01:11:46;;;;;;;3.70;1.60;;;;;;;;;;10462420;28;20468;-74
2023/12/19 01:16:50;;;;;;;6.63;2.53;;;;;;;;;;10465000;28;20040;-75
2023/12/19 01:21:53;;;;;;;4.10;1.77;;;;;;;;;;10463336;28;20049;-75
2023/12/19 01:26:56;;;;;;;3.50;1.57;;;;;;;;;;10471772;28;20233;-75
2023/12/19 01:32:00;;;;;;;4.07;2.20;;;;;;;;;;10476473;28;20127;-74
2023/12/19 01:37:02;;;;;;;4.80;2.00;;;;;;;;;;10469677;28;20113;-75
2023/12/19 01:42:05;;;;;;;6.00;2.20;;;;;;;;;;10470103;28;20122;-75
2023/12/19 01:47:09;;;;;;;4.27;1.83;;;;;;;;;;10471309;28;20078;-75
2023/12/19 01:52:12;;;;;;;5.53;2.25;;;;;;;;;;10476730;28;20044;-75
2023/12/19 01:57:14;;;;;;;5.33;2.00;;;;;;;;;;10474908;28;20414;-74
2023/12/19 02:02:18;;;;;;;3.20;1.83;;;;;;;;;;10471814;28;20068;-74
2023/12/19 02:07:21;;;;;;;3.73;1.67;;;;;;;;;;10472264;28;20518;-74
2023/12/19 02:12:24;;;;;;;3.57;1.23;;;;;;;;;;10473296;28;20679;-74
2023/12/19 02:17:28;;;;;;;2.17;1.57;;;;;;;;;;10470011;28;20125;-74
2023/12/19 02:22:31;;;;;;;4.55;1.98;;;;;;;;;;10467537;28;20048;-74
2023/12/19 02:27:36;;;;;;;3.60;1.30;;;;;;;;;;10474226;28;20123;-74
2023/12/19 02:32:39;;;;;;;2.67;1.20;;;;;;;;;;10470670;28;20127;-73
2023/12/19 02:37:41;;;;;;;3.33;1.53;;;;;;;;;;10488201;28;20029;-74
2023/12/19 02:42:45;;;;;;;4.43;1.43;;;;;;;;;;10472187;28;20048;-74
2023/12/19 02:47:49;;;;;;;5.83;2.00;;;;;;;;;;10470466;28;20398;-75
2023/12/19 02:52:51;;;;;;;7.47;2.30;;;;;;;;;;10460398;28;20106;-75
2023/12/19 02:57:55;;;;;;;3.87;1.80;;;;;;;;;;10472062;28;20074;-74
2023/12/19 03:02:58;;;;;;;3.90;1.67;;;;;;;;;;10465772;28;20548;-75
2023/12/19 03:08:01;;;;;;;3.17;1.63;;;;;;;;;;10468859;28;20036;-73
2023/12/19 03:13:05;;;;;;;4.67;1.90;;;;;;;;;;10476195;28;20048;-74
2023/12/19 03:18:08;;;;;;;5.30;1.90;;;;;;;;;;10467605;28;20527;-74
2023/12/19 03:23:11;;;;;;;4.87;1.60;;;;;;;;;;10465848;28;20130;-74
2023/12/19 03:28:15;;;;;;;3.00;1.50;;;;;;;;;;10468685;28;20144;-74
2023/12/19 03:33:18;;;;;;;;;;;;;;;;;;10463016;28;20494;-75
2023/12/19 03:38:20;;;;;;;2.97;1.13;;;;;;;;;;10474230;28;20043;-74
2023/12/19 03:43:24;;;;;;;4.00;1.93;;;;;;;;;;10463694;28;20125;-74
2023/12/19 03:48:26;;;;;;;2.67;1.58;;;;;;;;;;10471080;28;20089;-75
2023/12/19 03:53:29;;;;;;;3.93;1.83;;;;;;;;;;10462165;28;20455;-75
2023/12/19 03:58:34;;;;;;;3.83;1.40;;;;;;;;;;10466818;28;20041;-74
2023/12/19 04:03:36;;;;;;;;;;;;;;;;;;10468667;28;20119;-73
2023/12/19 04:08:39;;;;;;;3.33;1.50;;;;;;;;;;10465339;28;19971;-74
2023/12/19 04:13:43;;;;;;;1.67;0.73;;;;;;;;;;10470418;28;20048;-75
2023/12/19 04:18:46;;;;;;;2.13;0.85;;;;;;;;;;10471221;28;20045;-75
2023/12/19 04:23:48;;;;;;;4.23;1.50;;;;;;;;;;10470655;28;20137;-75
2023/12/19 04:28:52;;;;;;;3.77;1.40;;;;;;;;;;10473060;28;20075;-74
2023/12/19 04:33:55;;;;;;;2.47;1.48;;;;;;;;;;10466677;28;20179;-76
2023/12/19 04:39:01;;;;;;;0.40;0.40;;;;;;;;;;10454374;28;20102;-76
2023/12/19 04:44:05;;;;;;;0.33;0.30;;;;;;;;;;10468325;28;20049;-76
2023/12/19 04:49:08;;;;;;;2.75;1.20;;;;;;;;;;10476279;28;20442;-75
2023/12/19 04:54:11;;;;;;;1.97;1.00;;;;;;;;;;10470801;28;20049;-74
2023/12/19 04:59:15;;;;;;;3.73;1.60;;;;;;;;;;10476599;28;20397;-75
2023/12/19 05:04:17;;;;;;;5.78;1.30;;;;;;;;;;10471863;28;20499;-74
2023/12/19 05:09:20;;;;;;;4.03;1.60;;;;;;;;;;10472089;28;20051;-74
2023/12/19 05:14:24;;;;;;;2.30;1.30;;;;;;;;;;10477017;28;20102;-74
2023/12/19 05:19:27;;;;;;;1.20;0.60;;;;;;;;;;10472380;28;20055;-73
2023/12/19 05:24:32;;;;;;;1.63;0.70;;;;;;;;;;10476248;28;20056;-74
2023/12/19 05:29:36;;;;;;;4.53;1.20;;;;;;;;;;10475481;28;20028;-74
2023/12/19 05:34:39;;;;;;;1.45;0.50;;;;;;;;;;10468540;28;20107;-75
2023/12/19 05:39:42;;;;;;;0.40;0.40;;;;;;;;;;10474105;28;20033;-75
2023/12/19 05:44:46;;;;;;;1.37;0.83;;;;;;;;;;10473101;28;20106;-75
2023/12/19 05:49:48;;;;;;;2.67;1.13;;;;;;;;;;10476813;28;20490;-75
2023/12/19 05:54:51;;;;;;;1.77;1.23;;;;;;;;;;10466279;28;20049;-75
2023/12/19 05:59:55;;;;;;;1.37;0.90;;;;;;;;;;10476421;28;20032;-74
2023/12/19 06:05:00;;;;;;;1.48;1.10;;;;;;;;;;10476251;28;20042;-76
2023/12/19 06:10:02;;;;;;;1.08;0.77;;;;;;;;;;10469291;28;20048;-75
2023/12/19 06:15:11;;;;;;;3.53;1.77;;;;;;;;;;10474264;28;20482;-75
2023/12/19 06:20:14;;;;;;;4.67;1.13;;;;;;;;;;10475733;28;20032;-76
2023/12/19 06:25:17;;;;;;;1.50;0.70;;;;;;;;;;10473110;28;20064;-75
2023/12/19 06:30:21;;;;;;;3.67;1.57;;;;;;;;;;10472289;28;20052;-76
2023/12/19 06:35:33;;;;;;;2.60;1.03;;;;;;;;;;10474591;28;20474;-74
2023/12/19 06:40:35;;;;;;;5.90;1.50;;;;;;;;;;10470282;28;20072;-75
2023/12/19 06:45:39;;;;;;;1.70;1.10;;;;;;;;;;10472129;28;20091;-75
2023/12/19 06:50:42;;;;;;;0.70;0.50;;;;;;;;;;10468881;28;20462;-74
2023/12/19 06:55:45;;;;;;;1.55;1.10;;;;;;;;;;10463322;28;20075;-73
2023/12/19 07:00:49;;;;;;;1.57;1.10;;;;;;;;;;10436136;28;1086759;-76
2023/12/19 07:05:53;;;;;;;1.23;0.82;;;;;;;;;;10460675;28;20033;-74
2023/12/19 07:10:56;;;;;;;1.35;0.43;;;;;;;;;;10471214;28;20121;-74
2023/12/19 07:15:59;;;;;;;1.40;0.77;;;;;;;;;;10475324;28;20127;-74
2023/12/19 07:21:02;;;;;;;4.00;1.20;;;;;;;;;;10473017;28;20445;-74
2023/12/19 07:26:05;;;;;;;1.45;0.68;;;;;;;;;;10477208;28;20036;-75
2023/12/19 07:31:09;;;;;;;1.13;0.60;;;;;;;;;;10474869;28;20486;-74
2023/12/19 07:36:12;;;;;;;1.25;0.80;;;;;;;;;;10473184;28;20152;-74
2023/12/19 07:41:15;;;;;;;6.05;1.23;;;;;;;;;;10475149;28;20318;-74
2023/12/19 07:46:19;;;;;;;1.70;1.10;;;;;;;;;;10470126;28;20050;-74
2023/12/19 07:51:21;;;;;;;;;;;;;;;;;;10474368;28;20210;-75
2023/12/19 07:56:24;;;;;;;3.38;1.30;;;;;;;;;;10475365;28;19964;-75
2023/12/19 08:01:28;;;;;;;0.68;0.57;;;;;;;;;;10474418;28;20032;-74
2023/12/19 08:06:31;;;;;;;;;;;;;;;;;;10471121;28;20058;-74
2023/12/19 08:11:33;;;;;;;3.42;0.90;;;;;;;;;;10470217;28;19931;-74
2023/12/19 08:16:37;;;;;;;1.75;1.08;;;;;;;;;;10471859;28;20072;-76
2023/12/19 08:21:47;;;;;;;2.55;1.40;;;;;;;;;;10464383;28;20087;-77
2023/12/19 08:26:50;;;;;;;2.85;1.35;;;;;;;;;;10469269;28;20121;-73
2023/12/19 08:31:54;;;;;;;7.43;1.70;;;;;;;;;;10464025;28;20157;-74
2023/12/19 08:36:57;;;;;;;4.32;1.55;;;;;;;;;;10468743;28;20049;-74
2023/12/19 08:41:59;;;;;;;5.18;1.98;;;;;;;;;;10468395;28;20137;-75
2023/12/19 08:47:05;;;;;;;9.77;2.15;;;;;;;;;;10471527;28;20052;-75
2023/12/19 08:52:08;;;;;;;9.80;2.60;;;;;;;;;;10468636;28;20463;-74
2023/12/19 08:57:11;;;;;;;5.70;2.37;;;;;;;;;;10475126;28;20136;-75
2023/12/19 09:02:15;;;;;;;6.17;2.57;;;;;;;;;;10470213;28;20037;-75
2023/12/19 09:07:17;;;;;;;5.07;2.20;;;;;;;;;;10481499;28;20042;-75
2023/12/19 09:12:20;;;;;;;5.63;2.60;;;;;;;;;;10472526;28;20037;-75
2023/12/19 09:17:24;;;;;;;5.15;2.20;;;;;;;;;;10471092;28;20047;-75
2023/12/19 09:22:27;;;;;;;7.72;2.45;;;;;;;;;;10470411;28;20128;-75
2023/12/19 09:27:29;;;;;;;4.03;2.33;;;;;;;;;;10475752;28;20064;-77
2023/12/19 09:32:33;;;;;;;4.35;2.20;;;;;;;;;;10470567;28;20514;-76
2023/12/19 09:37:37;;;;;;;8.43;2.55;;;;;;;;;;10454191;28;20187;-77
2023/12/19 09:42:40;;;;;;;5.93;2.40;;;;;;;;;;10470501;28;20084;-76
2023/12/19 09:47:48;;;;;;;3.47;2.20;;;;;;;;;;10477052;28;20052;-75
2023/12/19 09:52:51;;;;;;;7.35;2.47;;;;;;;;;;10474179;28;20401;-76
2023/12/19 09:57:55;;;;;;;3.20;2.25;;;;;;;;;;10474945;28;20090;-75
2023/12/19 10:02:59;;;;;;;5.40;2.40;;;;;;;;;;10478396;28;20141;-76
2023/12/19 10:08:03;;;;;;;9.73;3.20;;;;;;;;;;10481872;28;20067;-76
2023/12/19 10:13:06;;;;;;;5.20;2.63;;;;;;;;;;10473969;28;20455;-75
2023/12/19 10:18:11;;;;;;;6.63;2.25;;;;;;;;;;10475607;28;20402;-75
2023/12/19 10:23:20;;;;;;;4.20;2.30;;;;;;;;;;10477494;28;20382;-76
2023/12/19 10:28:23;;;;;;;3.25;1.90;;;;;;;;;;10479624;28;20052;-75
2023/12/19 10:33:27;;;;;;;6.07;2.60;;;;;;;;;;10474241;28;20033;-75
2023/12/19 10:38:30;;;;;;;4.57;2.50;;;;;;;;;;10472857;28;20040;-75
2023/12/19 10:43:38;;;;;;;6.22;2.45;;;;;;;;;;10477697;28;20671;-76
2023/12/19 10:48:42;;;;;;;2.70;1.85;;;;;;;;;;10478979;28;20494;-75
2023/12/19 10:53:49;;;;;;;3.85;2.30;;;;;;;;;;10467627;28;20052;-75
2023/12/19 10:58:55;;;;;;;3.92;1.90;;;;;;;;;;10474029;28;20163;-75
2023/12/19 11:04:02;;;;;;;3.15;1.90;;;;;;;;;;10470959;28;20044;-76
2023/12/19 11:09:07;;;;;;;8.50;2.00;;;;;;;;;;10469925;28;20072;-76
2023/12/19 11:14:10;;;;;;;3.03;1.75;;;;;;;;;;10478112;28;20631;-75
2023/12/19 11:19:18;;;;;;;5.00;1.73;;;;;;;;;;10470118;28;20522;-76
2023/12/19 11:24:24;;;;;;;4.22;1.60;;;;;;;;;;10474748;28;20055;-75
2023/12/19 11:29:42;;;;;;;3.67;1.67;;;;;;;;;;10474968;28;20044;-75
2023/12/19 11:34:46;;;;;;;1.73;1.48;;;;;;;;;;10474382;28;20049;-76
2023/12/19 11:39:49;;;;;;;2.13;1.50;;;;;;;;;;10465902;28;20032;-76
2023/12/19 11:44:52;;;;;;;3.10;1.80;;;;;;;;;;10453074;28;20230;-76
2023/12/19 11:49:56;;;;;;;2.63;1.50;;;;;;;;;;10473980;28;20047;-77
2023/12/19 11:54:59;;;;;;;3.55;1.30;;;;;;;;;;10471989;28;20097;-77
2023/12/19 12:00:02;;;;;;;2.00;0.90;;;;;;;;;;10477466;28;20044;-75
2023/12/19 12:05:12;;;;;;;1.00;0.88;;;;;;;;;;10473148;28;20137;-76
2023/12/19 12:10:18;;;;;;;1.50;1.40;;;;;;;;;;10470444;28;20170;-75
2023/12/19 12:15:21;;;;;;;1.38;1.25;;;;;;;;;;10469557;28;20427;-76
2023/12/19 12:20:25;;;;;;;4.38;2.05;;;;;;;;;;10470154;28;20668;-76
2023/12/19 12:25:29;;;;;;;3.75;1.70;;;;;;;;;;10462725;28;20071;-75
2023/12/19 12:30:33;;;;;;;3.22;1.40;;;;;;;;;;10464928;28;20033;-75
2023/12/19 12:35:38;;;;;;;3.22;1.35;;;;;;;;;;10471158;28;20402;-76
2023/12/19 12:40:50;;;;;;;1.60;1.50;;;;;;;;;;10470918;28;20438;-76
2023/12/19 12:46:01;;;;;;;5.28;1.98;;;;;;;;;;10474102;28;20118;-75
2023/12/19 12:51:05;;;;;;;3.30;1.40;;;;;;;;;;10455284;28;20052;-75
2023/12/19 12:56:11;;;;;;;3.92;1.60;;;;;;;;;;10465816;28;20048;-75
2023/12/19 13:01:14;;;;;;;4.47;1.75;;;;;;;;;;10471254;28;20126;-75
2023/12/19 13:06:18;;;;;;;4.07;1.50;;;;;;;;;;10472118;28;20047;-76
2023/12/19 13:11:21;;;;;;;5.75;2.20;;;;;;;;;;10473888;28;20044;-76
2023/12/19 13:16:25;;;;;;;5.20;1.30;;;;;;;;;;10474238;28;20080;-75
2023/12/19 13:21:29;;;;;;;3.45;1.10;;;;;;;;;;10475080;28;20862;-75
2023/12/19 13:26:32;;;;;;;1.13;0.90;;;;;;;;;;10480216;28;20410;-78
2023/12/19 13:31:35;;;;;;;;;;;;;;;;;;10480962;28;20107;-75
2023/12/19 13:36:41;;;;;;;1.63;0.90;;;;;;;;;;10480502;28;19920;-76
2023/12/19 13:41:44;;;;;;;2.30;0.90;;;;;;;;;;10481289;28;20112;-76
2023/12/19 13:46:48;;;;;;;7.25;0.98;;;;;;;;;;10482154;28;20139;-75
2023/12/19 13:51:50;;;;;;;;;;;;;;;;;;10475534;28;20573;-75
2023/12/19 13:56:54;;;;;;;2.88;1.45;;;;;;;;;;10475483;28;20019;-75
2023/12/19 14:01:57;;;;;;;3.67;1.20;;;;;;;;;;10473401;28;20359;-76
2023/12/19 14:06:59;;;;;;;2.47;0.90;;;;;;;;;;10468302;28;20037;-76
2023/12/19 14:12:04;;;;;;;1.00;0.55;;;;;;;;;;10459018;28;20045;-76
2023/12/19 14:17:06;;;;;;;2.10;1.17;;;;;;;;;;10476201;28;20055;-75
2023/12/19 14:22:09;;;;;;;3.17;0.77;;;;;;;;;;10466294;28;20044;-75
2023/12/19 14:27:14;;;;;;;2.63;1.30;;;;;;;;;;10467783;28;20037;-74
2023/12/19 14:32:17;;;;;;;;;;;;;;;;;;10451508;28;20509;-75
2023/12/19 14:37:21;;;;;;;7.20;1.23;;;;;;;;;;10474725;28;20445;-76
2023/12/19 14:42:25;;;;;;;3.75;1.10;;;;;;;;;;10468747;28;20122;-75
2023/12/19 14:47:30;;;;;;;7.60;1.20;;;;;;;;;;10476080;28;20498;-75
2023/12/19 14:52:34;;;;;;;10.77;1.20;;;;;;;;;;10470136;28;20045;-75
2023/12/19 14:57:38;;;;;;;4.82;1.63;;;;;;;;;;10451599;28;20040;-75
2023/12/19 15:02:41;;;;;;;5.95;1.33;;;;;;;;;;10470611;28;20032;-74
2023/12/19 15:07:44;;;;;;;3.10;1.02;;;;;;;;;;10473391;28;20731;-75
2023/12/19 15:12:49;;;;;;;2.10;0.93;;;;;;;;;;10472399;28;20056;-76
2023/12/19 15:17:53;;;;;;;;;;;;;;;;;;10481638;28;20389;-73
2023/12/19 15:22:56;;;;;;;3.35;1.20;;;;;;;;;;10449727;28;19947;-76
2023/12/19 15:28:01;;;;;;;8.57;1.27;;;;;;;;;;10469130;28;20505;-77
2023/12/19 15:33:16;;;;;;;2.55;0.93;;;;;;;;;;10470124;28;20178;-74
2023/12/19 15:38:22;;;;;;;2.30;0.85;;;;;;;;;;10464283;28;20650;-76
2023/12/19 15:43:26;;;;;;;6.13;1.20;;;;;;;;;;10463859;28;20090;-74
2023/12/19 15:48:42;;;;;;;3.97;1.10;;;;;;;;;;10464273;28;20171;-75
2023/12/19 15:53:44;;;;;;;5.50;1.20;;;;;;;;;;10468297;28;20442;-75
2023/12/19 15:58:48;;;;;;;8.02;1.40;;;;;;;;;;10466145;28;20546;-75
2023/12/19 16:03:51;;;;;;;8.80;1.98;;;;;;;;;;10468800;28;20721;-74
2023/12/19 16:08:54;;;;;;;4.07;1.75;;;;;;;;;;10470918;28;20046;-76
2023/12/19 16:13:58;;;;;;;7.20;1.97;;;;;;;;;;10466896;28;20119;-75
2023/12/19 16:19:01;;;;;;;3.78;1.60;;;;;;;;;;10463201;28;20037;-75
2023/12/19 16:24:04;;;;;;;6.30;1.73;;;;;;;;;;10468035;28;20047;-76
2023/12/19 16:29:08;;;;;;;5.38;2.28;;;;;;;;;;10466714;28;20063;-74
2023/12/19 16:34:11;;;;;;;6.68;2.20;;;;;;;;;;10456240;28;20127;-76
2023/12/19 16:39:14;;;;;;;5.03;1.63;;;;;;;;;;10464333;28;20119;-74
2023/12/19 16:44:18;;;;;;;4.78;2.30;;;;;;;;;;10468108;28;20037;-74
2023/12/19 16:49:20;;;;;;;;;;;;;;;;;;10466753;28;20495;-74
2023/12/19 16:54:23;;;;;;;3.42;1.58;;;;;;;;;;10470174;28;20023;-74
2023/12/19 16:59:27;;;;;;;2.38;0.80;;;;;;;;;;10471395;28;20131;-75
2023/12/19 17:04:30;;;;;;;3.97;1.42;;;;;;;;;;10472748;28;20060;-74
2023/12/19 17:09:33;;;;;;;3.97;1.70;;;;;;;;;;10478957;28;20841;-73
2023/12/19 17:14:37;;;;;;;4.75;2.10;;;;;;;;;;10474904;28;20041;-75
2023/12/19 17:19:40;;;;;;;3.95;1.85;;;;;;;;;;10466802;28;20153;-76
2023/12/19 17:24:43;;;;;;;4.95;1.35;;;;;;;;;;10473604;28;20120;-75
2023/12/19 17:29:47;;;;;;;4.68;1.58;;;;;;;;;;10478991;28;20036;-75
2023/12/19 17:34:49;;;;;;;4.28;0.80;;;;;;;;;;10476568;28;20043;-75
2023/12/19 17:39:52;;;;;;;2.15;1.30;;;;;;;;;;10481811;28;20049;-75
2023/12/19 17:44:56;;;;;;;2.35;1.60;;;;;;;;;;10470304;28;20135;-75
2023/12/19 17:49:59;;;;;;;6.00;1.42;;;;;;;;;;10491385;28;20079;-76
2023/12/19 17:55:02;;;;;;;4.18;1.58;;;;;;;;;;10475230;28;20540;-75
2023/12/19 18:00:09;;;;;;;2.40;1.10;;;;;;;;;;10476943;28;20040;-76
2023/12/19 18:05:11;;;;;;;6.00;1.88;;;;;;;;;;10471832;28;20040;-76
2023/12/19 18:10:15;;;;;;;3.00;1.15;;;;;;;;;;10466543;28;20049;-75
2023/12/19 18:15:19;;;;;;;3.22;1.40;;;;;;;;;;10483655;28;21057;-75
2023/12/19 18:20:25;;;;;;;3.33;1.40;;;;;;;;;;10481767;28;20508;-76
2023/12/19 18:25:30;;;;;;;3.05;1.50;;;;;;;;;;10478785;28;20126;-73
2023/12/19 18:30:34;;;;;;;1.77;1.00;;;;;;;;;;10478473;28;20061;-75
2023/12/19 18:35:37;;;;;;;2.75;1.27;;;;;;;;;;10468236;28;20464;-74
2023/12/19 18:40:39;;;;;;;2.03;1.00;;;;;;;;;;10479075;28;20131;-73
2023/12/19 18:45:43;;;;;;;3.03;1.33;;;;;;;;;;10480552;28;20052;-75
2023/12/19 18:50:46;;;;;;;2.40;1.27;;;;;;;;;;10492831;28;20044;-75
2023/12/19 18:55:48;;;;;;;3.90;1.20;;;;;;;;;;10475282;28;20509;-74
2023/12/19 19:00:53;;;;;;;2.05;1.08;;;;;;;;;;10478531;28;20044;-75
2023/12/19 19:05:56;;;;;;;2.90;1.10;;;;;;;;;;10478286;28;20445;-75
2023/12/19 19:10:58;;;;;;;1.60;0.82;;;;;;;;;;10474098;28;20135;-75
2023/12/19 19:16:02;;;;;;;3.17;1.00;;;;;;;;;;10479247;28;20542;-74
2023/12/19 19:21:07;;;;;;;2.35;1.00;;;;;;;;;;10480342;28;20051;-73
2023/12/19 19:26:10;;;;;;;2.83;1.20;;;;;;;;;;10469713;28;20572;-72
2023/12/19 19:31:17;;;;;;;1.47;0.77;;;;;;;;;;10480988;28;20048;-74
2023/12/19 19:36:20;;;;;;;1.02;0.63;;;;;;;;;;10471146;28;20520;-74
2023/12/19 19:41:23;;;;;;;1.33;1.00;;;;;;;;;;10479294;28;20477;-73
2023/12/19 19:46:27;;;;;;;1.45;0.60;;;;;;;;;;10480083;28;20390;-74
2023/12/19 19:51:29;;;;;;;2.33;0.75;;;;;;;;;;10479728;28;20044;-75
2023/12/19 19:56:33;;;;;;;1.38;0.90;;;;;;;;;;10479918;28;20074;-74
2023/12/19 20:01:37;;;;;;;2.00;0.77;;;;;;;;;;10474076;28;20093;-74
2023/12/19 20:06:41;;;;;;;;;;;;;;;;;;10480233;28;20052;-74
2023/12/19 20:11:45;;;;;;;3.38;1.40;;;;;;;;;;10483804;28;19927;-73
2023/12/19 20:16:49;;;;;;;5.38;1.63;;;;;;;;;;10482043;28;20513;-74
2023/12/19 20:21:51;;;;;;;4.53;1.25;;;;;;;;;;10480540;28;20127;-73
2023/12/19 20:26:54;;;;;;;1.88;1.15;;;;;;;;;;10475427;28;20040;-74
2023/12/19 20:31:59;;;;;;;3.00;1.10;;;;;;;;;;10493691;28;20064;-74
2023/12/19 20:37:01;;;;;;;2.05;0.40;;;;;;;;;;10491365;28;20049;-75
2023/12/19 20:42:04;;;;;;;3.28;1.25;;;;;;;;;;10486275;28;20486;-74
2023/12/19 20:47:08;;;;;;;1.33;1.00;;;;;;;;;;10486863;28;20178;-75
2023/12/19 20:52:11;;;;;;;2.17;1.33;;;;;;;;;;10488713;28;20036;-75
2023/12/19 20:57:16;;;;;;;2.63;1.33;;;;;;;;;;10474129;28;20766;-76
2023/12/19 21:02:23;;;;;;;3.45;1.02;;;;;;;;;;10478839;28;20040;-75
2023/12/19 21:07:30;;;;;;;2.80;0.88;;;;;;;;;;10492417;28;20040;-74
2023/12/19 21:12:35;;;;;;;3.55;1.48;;;;;;;;;;10444101;28;20043;-74
2023/12/19 21:17:50;;;;;;;2.97;1.40;;;;;;;;;;10473092;28;20182;-74
2023/12/19 21:22:58;;;;;;;2.80;1.40;;;;;;;;;;10473416;28;20103;-75
2023/12/19 21:28:06;;;;;;;4.07;1.50;;;;;;;;;;10478944;28;20036;-74
2023/12/19 21:33:37;;;;;;;3.20;1.60;;;;;;;;;;10469593;28;20525;-74
2023/12/19 21:38:41;;;;;;;4.28;1.70;;;;;;;;;;10477800;28;20421;-75
2023/12/19 21:43:49;;;;;;;4.25;1.70;;;;;;;;;;10478533;28;20209;-73
2023/12/19 21:49:11;;;;;;;1.83;1.30;;;;;;;;;;10475632;28;20048;-75
2023/12/19 21:54:34;;;;;;;2.35;1.40;;;;;;;;;;10502199;28;20492;-75
2023/12/19 21:59:40;;;;;;;4.20;1.45;;;;;;;;;;10472236;28;20044;-74
2023/12/19 22:04:45;;;;;;;3.83;1.60;;;;;;;;;;10484182;28;20040;-74
2023/12/19 22:09:50;;;;;;;4.63;1.77;;;;;;;;;;10474087;28;20589;-74
2023/12/19 22:15:04;;;;;;;;;;;;;;;;;;10462174;28;20498;-74
2023/12/19 22:20:12;;;;;;;2.93;1.53;;;;;;;;;;10494013;28;20377;-75
2023/12/19 22:25:18;;;;;;;4.03;1.50;;;;;;;;;;10459817;28;20036;-74
2023/12/19 22:30:24;;;;;;;4.57;2.17;;;;;;;;;;10489614;28;20493;-73
2023/12/19 22:35:43;;;;;;;4.47;1.55;;;;;;;;;;10477678;28;20041;-75
2023/12/19 22:40:51;;;;;;;3.80;1.58;;;;;;;;;;10465030;28;20052;-73
2023/12/19 22:45:58;;;;;;;2.33;1.35;;;;;;;;;;10469579;28;20052;-76
2023/12/19 22:51:06;;;;;;;3.53;1.67;;;;;;;;;;10475378;28;20092;-75
2023/12/19 22:56:19;;;;;;;4.65;1.92;;;;;;;;;;10466519;28;20453;-75
2023/12/19 23:01:23;;;;;;;5.07;2.15;;;;;;;;;;10465397;28;20072;-75
2023/12/19 23:06:33;;;;;;;2.72;1.55;;;;;;;;;;10474678;28;20144;-74
2023/12/19 23:11:42;;;;;;;3.55;1.88;;;;;;;;;;10443882;28;20041;-74
2023/12/19 23:16:45;;;;;;;2.08;1.52;;;;;;;;;;10456905;28;20422;-74
2023/12/19 23:21:52;;;;;;;2.85;1.67;;;;;;;;;;10457898;28;20506;-76
2023/12/19 23:27:04;;;;;;;1.58;1.13;;;;;;;;;;10474197;28;20032;-76
2023/12/19 23:32:10;;;;;;;3.80;1.58;;;;;;;;;;10476781;28;20044;-75
2023/12/19 23:37:37;;;;;;;4.53;1.98;;;;;;;;;;10466791;28;20580;-75
2023/12/19 23:42:44;;;;;;;3.28;0.77;;;;;;;;;;10456171;28;20167;-75
2023/12/19 23:47:48;;;;;;;2.17;1.08;;;;;;;;;;10483625;28;20043;-78
2023/12/19 23:52:52;;;;;;;3.20;1.02;;;;;;;;;;10452854;28;20052;-76
2023/12/19 23:57:58;;;;;;;3.70;2.00;;;;;;;;;;10457152;28;20132;-74
